Time;durP1;ratioP1;P1;durP2;ratioP2;P2;SDS_P1;SDS_P2;PMS_P1;PMS_P2;Temp;Humidity;BMP_temperature;BMP_pressure;BME280_temperature;BME280_humidity;BME280_pressure;Samples;Min_cycle;Max_cycle;Signal;HPM_P1;HPM_P2
2023/06/22 00:02:15;;;;;;;8.30;5.60;;;;;;;;;;4988117;28;20038;-75
2023/06/22 00:04:45;;;;;;;9.68;6.63;;;;;;;;;;4987427;28;20425;-74
2023/06/22 00:07:16;;;;;;;11.80;7.10;;;;;;;;;;4987282;28;20061;-76
2023/06/22 00:09:46;;;;;;;10.32;7.00;;;;;;;;;;4988070;28;20429;-76
2023/06/22 00:12:16;;;;;;;11.98;7.03;;;;;;;;;;4987089;28;20538;-76
2023/06/22 00:14:47;;;;;;;14.45;9.65;;;;;;;;;;4987189;28;20438;-76
2023/06/22 00:17:19;;;;;;;14.18;8.75;;;;;;;;;;4969706;28;20058;-76
2023/06/22 00:19:53;;;;;;;14.70;9.63;;;;;;;;;;4987509;28;20058;-75
2023/06/22 00:22:28;;;;;;;12.80;8.90;;;;;;;;;;4987108;28;20046;-76
2023/06/22 00:24:58;;;;;;;10.52;7.45;;;;;;;;;;4987520;28;20053;-76
2023/06/22 00:27:30;;;;;;;13.57;7.70;;;;;;;;;;4986582;28;21177;-76
2023/06/22 00:30:00;;;;;;;9.60;7.07;;;;;;;;;;4987951;28;20050;-76
2023/06/22 00:32:30;;;;;;;18.77;10.48;;;;;;;;;;4969017;28;20051;-76
2023/06/22 00:35:02;;;;;;;13.05;9.27;;;;;;;;;;4969949;28;20054;-76
2023/06/22 00:37:33;;;;;;;11.55;7.07;;;;;;;;;;4987549;28;20042;-76
2023/06/22 00:40:07;;;;;;;15.48;9.43;;;;;;;;;;4987859;28;20061;-76
2023/06/22 00:42:41;;;;;;;11.52;7.95;;;;;;;;;;4987647;28;20122;-76
2023/06/22 00:45:11;;;;;;;11.00;7.15;;;;;;;;;;4987326;28;20057;-76
2023/06/22 00:47:43;;;;;;;10.00;7.55;;;;;;;;;;4984564;28;20050;-76
2023/06/22 00:50:20;;;;;;;15.48;10.68;;;;;;;;;;4984706;28;20039;-76
2023/06/22 00:52:59;;;;;;;15.77;10.60;;;;;;;;;;4985209;28;20045;-76
2023/06/22 00:55:30;;;;;;;11.27;8.15;;;;;;;;;;4967235;28;20465;-75
2023/06/22 00:58:05;;;;;;;10.73;5.63;;;;;;;;;;4966723;28;20107;-76
2023/06/22 01:00:37;;;;;;;8.60;5.47;;;;;;;;;;4967341;28;20057;-77
2023/06/22 01:03:10;;;;;;;13.05;6.75;;;;;;;;;;4969584;28;20066;-76
2023/06/22 01:05:41;;;;;;;11.63;5.60;;;;;;;;;;4971283;28;20431;-77
2023/06/22 01:08:37;;;;;;;7.57;5.10;;;;;;;;;;4988339;28;20054;-77
2023/06/22 01:11:15;;;;;;;9.48;5.72;;;;;;;;;;4969203;28;20054;-76
2023/06/22 01:14:00;;;;;;;8.98;5.00;;;;;;;;;;4965475;28;20051;-76
2023/06/22 01:16:32;;;;;;;7.93;4.00;;;;;;;;;;4967454;28;20054;-76
2023/06/22 01:19:33;;;;;;;9.18;5.22;;;;;;;;;;4965733;28;20050;-76
2023/06/22 01:22:12;;;;;;;10.38;5.35;;;;;;;;;;4965975;28;20377;-76
2023/06/22 01:24:49;;;;;;;9.45;4.35;;;;;;;;;;4967555;28;20050;-76
2023/06/22 01:27:22;;;;;;;7.22;3.45;;;;;;;;;;4967000;28;20536;-75
2023/06/22 01:30:02;;;;;;;5.82;3.55;;;;;;;;;;4967623;28;20043;-76
2023/06/22 01:32:38;;;;;;;7.47;4.00;;;;;;;;;;4965485;28;20514;-76
2023/06/22 01:35:11;;;;;;;5.45;2.85;;;;;;;;;;4965461;28;20063;-76
2023/06/22 01:37:41;;;;;;;8.80;3.30;;;;;;;;;;4966414;28;20054;-76
2023/06/22 01:40:14;;;;;;;8.30;3.03;;;;;;;;;;4967402;28;20053;-76
2023/06/22 01:42:45;;;;;;;7.78;4.65;;;;;;;;;;4966092;28;20533;-76
2023/06/22 01:45:16;;;;;;;7.15;5.53;;;;;;;;;;4965799;28;20069;-76
2023/06/22 01:47:47;;;;;;;9.13;7.63;;;;;;;;;;4966955;28;20413;-76
2023/06/22 01:50:20;;;;;;;5.95;4.05;;;;;;;;;;4966431;28;20042;-76
2023/06/22 01:52:50;;;;;;;4.22;2.65;;;;;;;;;;4967087;28;20050;-76
2023/06/22 01:55:20;;;;;;;7.97;3.35;;;;;;;;;;4966933;28;20078;-76
2023/06/22 01:57:51;;;;;;;6.35;3.55;;;;;;;;;;4965021;28;20065;-76
2023/06/22 02:00:25;;;;;;;8.90;4.05;;;;;;;;;;4965824;28;20058;-76
2023/06/22 02:03:03;;;;;;;7.13;3.25;;;;;;;;;;4965700;28;20501;-76
2023/06/22 02:05:48;;;;;;;6.47;3.13;;;;;;;;;;4966847;28;20433;-75
2023/06/22 02:08:25;;;;;;;5.85;3.03;;;;;;;;;;4965926;28;20540;-76
2023/06/22 02:10:57;;;;;;;5.03;2.67;;;;;;;;;;4966578;28;20046;-75
2023/06/22 02:13:29;;;;;;;5.60;2.60;;;;;;;;;;4969511;28;20066;-74
2023/06/22 02:16:01;;;;;;;6.72;2.88;;;;;;;;;;4968202;28;20051;-74
2023/06/22 02:18:31;;;;;;;4.43;2.80;;;;;;;;;;4986128;28;20053;-74
2023/06/22 02:21:01;;;;;;;6.45;3.33;;;;;;;;;;4967783;28;20050;-74
2023/06/22 02:23:34;;;;;;;7.22;3.67;;;;;;;;;;4967003;28;20050;-74
2023/06/22 02:26:05;;;;;;;10.05;3.70;;;;;;;;;;4967761;28;20054;-74
2023/06/22 02:28:35;;;;;;;4.95;3.03;;;;;;;;;;4967896;28;20062;-74
2023/06/22 02:31:05;;;;;;;5.28;3.40;;;;;;;;;;4985671;28;20064;-75
2023/06/22 02:33:35;;;;;;;8.45;4.57;;;;;;;;;;4985912;28;20050;-74
2023/06/22 02:36:08;;;;;;;8.95;4.53;;;;;;;;;;4984566;28;20054;-75
2023/06/22 02:38:48;;;;;;;6.05;3.60;;;;;;;;;;4967944;28;20058;-75
2023/06/22 02:41:18;;;;;;;7.65;4.25;;;;;;;;;;4967369;28;20050;-74
2023/06/22 02:43:49;;;;;;;7.60;4.57;;;;;;;;;;4985562;28;20421;-75
2023/06/22 02:46:21;;;;;;;7.75;4.07;;;;;;;;;;4985643;28;20053;-75
2023/06/22 02:48:53;;;;;;;5.35;3.13;;;;;;;;;;4967674;28;20054;-75
2023/06/22 02:51:23;;;;;;;3.97;2.78;;;;;;;;;;4988014;28;20054;-75
2023/06/22 02:53:57;;;;;;;4.63;2.42;;;;;;;;;;4990269;28;20046;-75
2023/06/22 02:56:30;;;;;;;6.60;2.75;;;;;;;;;;4971127;28;20054;-74
2023/06/22 02:59:03;;;;;;;6.57;2.80;;;;;;;;;;4989069;28;20501;-74
2023/06/22 03:01:39;;;;;;;4.10;2.63;;;;;;;;;;4972130;28;20563;-75
2023/06/22 03:04:18;;;;;;;4.78;2.83;;;;;;;;;;4971118;28;20531;-75
2023/06/22 03:06:50;;;;;;;5.90;2.88;;;;;;;;;;4972449;28;20058;-74
2023/06/22 03:09:22;;;;;;;3.78;2.78;;;;;;;;;;4971105;28;20054;-75
2023/06/22 03:11:52;;;;;;;8.57;3.08;;;;;;;;;;4971549;28;20520;-75
2023/06/22 03:14:27;;;;;;;;;;;;;;;;;;4971462;28;20058;-76
2023/06/22 03:17:02;;;;;;;4.63;2.45;;;;;;;;;;4970615;28;20001;-75
2023/06/22 03:19:34;;;;;;;5.40;3.17;;;;;;;;;;4970826;28;20081;-76
2023/06/22 03:22:07;;;;;;;6.95;2.83;;;;;;;;;;4970907;28;20054;-75
2023/06/22 03:24:40;;;;;;;9.80;3.00;;;;;;;;;;4989192;28;20077;-75
2023/06/22 03:27:11;;;;;;;4.60;2.90;;;;;;;;;;4989053;28;20054;-75
2023/06/22 03:29:44;;;;;;;6.43;2.72;;;;;;;;;;4989044;28;20076;-75
2023/06/22 03:32:15;;;;;;;9.68;3.35;;;;;;;;;;4971996;28;20432;-75
2023/06/22 03:34:49;;;;;;;5.65;2.60;;;;;;;;;;4988962;28;20057;-76
2023/06/22 03:37:20;;;;;;;4.93;2.83;;;;;;;;;;4971196;28;20055;-75
2023/06/22 03:39:52;;;;;;;5.75;2.70;;;;;;;;;;4971000;28;20050;-75
2023/06/22 03:42:23;;;;;;;8.85;2.88;;;;;;;;;;4970677;28;20050;-76
2023/06/22 03:44:53;;;;;;;7.50;2.47;;;;;;;;;;4970150;28;20059;-76
2023/06/22 03:47:23;;;;;;;5.82;2.63;;;;;;;;;;4971185;28;20050;-76
2023/06/22 03:49:54;;;;;;;6.55;2.88;;;;;;;;;;4988647;28;20409;-76
2023/06/22 03:52:26;;;;;;;5.80;2.40;;;;;;;;;;4988869;28;20046;-76
2023/06/22 03:54:58;;;;;;;3.33;2.65;;;;;;;;;;4971027;28;20061;-76
2023/06/22 03:57:28;;;;;;;6.13;2.75;;;;;;;;;;4971068;28;20050;-76
2023/06/22 03:59:58;;;;;;;9.15;2.92;;;;;;;;;;4988208;28;20046;-76
2023/06/22 04:02:39;;;;;;;4.80;2.70;;;;;;;;;;4991058;28;20062;-76
2023/06/22 04:05:10;;;;;;;6.38;2.60;;;;;;;;;;4988113;28;20046;-76
2023/06/22 04:07:41;;;;;;;4.00;2.55;;;;;;;;;;4969721;28;20469;-74
2023/06/22 04:10:11;;;;;;;3.80;2.40;;;;;;;;;;4988350;28;20050;-73
2023/06/22 04:12:46;;;;;;;4.57;2.50;;;;;;;;;;4988421;28;20038;-76
2023/06/22 04:15:16;;;;;;;4.47;2.42;;;;;;;;;;4987982;28;20054;-76
2023/06/22 04:17:47;;;;;;;4.10;2.38;;;;;;;;;;4987905;28;20046;-76
2023/06/22 04:20:18;;;;;;;5.88;2.65;;;;;;;;;;4970711;28;20497;-76
2023/06/22 04:22:48;;;;;;;6.25;3.10;;;;;;;;;;4988460;28;20425;-76
2023/06/22 04:25:21;;;;;;;4.28;2.20;;;;;;;;;;4987390;28;20059;-76
2023/06/22 04:27:51;;;;;;;9.77;2.60;;;;;;;;;;4987688;28;20050;-76
2023/06/22 04:30:23;;;;;;;7.97;2.75;;;;;;;;;;4988247;28;20073;-76
2023/06/22 04:33:00;;;;;;;4.50;2.55;;;;;;;;;;4987460;28;20057;-77
2023/06/22 04:35:30;;;;;;;6.43;2.42;;;;;;;;;;4987745;28;20054;-76
2023/06/22 04:38:01;;;;;;;4.03;2.80;;;;;;;;;;4987946;28;20046;-76
2023/06/22 04:40:32;;;;;;;5.72;2.45;;;;;;;;;;4970971;28;20073;-77
2023/06/22 04:43:02;;;;;;;3.78;2.60;;;;;;;;;;4987993;28;20054;-77
2023/06/22 04:45:37;;;;;;;4.75;2.55;;;;;;;;;;4987529;28;20046;-76
2023/06/22 04:48:09;;;;;;;6.20;2.88;;;;;;;;;;4987323;28;20401;-77
2023/06/22 04:50:39;;;;;;;4.82;2.63;;;;;;;;;;4987134;28;20050;-76
2023/06/22 04:53:09;;;;;;;7.22;2.45;;;;;;;;;;4987179;28;20061;-76
2023/06/22 04:55:41;;;;;;;3.70;2.42;;;;;;;;;;4987196;28;20046;-76
2023/06/22 04:58:12;;;;;;;3.90;2.63;;;;;;;;;;4987544;28;20046;-76
2023/06/22 05:00:44;;;;;;;3.85;2.90;;;;;;;;;;4987067;28;20042;-76
2023/06/22 05:03:18;;;;;;;5.32;2.60;;;;;;;;;;4987087;28;20046;-76
2023/06/22 05:05:49;;;;;;;4.80;2.83;;;;;;;;;;4986849;28;20052;-76
2023/06/22 05:08:19;;;;;;;4.57;2.53;;;;;;;;;;4986757;28;20517;-76
2023/06/22 05:10:51;;;;;;;6.00;2.42;;;;;;;;;;4987424;28;20049;-77
2023/06/22 05:13:33;;;;;;;7.60;2.95;;;;;;;;;;4986023;28;20055;-76
2023/06/22 05:16:03;;;;;;;4.68;2.80;;;;;;;;;;4987050;28;20066;-75
2023/06/22 05:18:36;;;;;;;3.95;2.65;;;;;;;;;;4986622;28;20506;-76
2023/06/22 05:21:06;;;;;;;9.40;3.33;;;;;;;;;;4986389;28;20823;-76
2023/06/22 05:23:36;;;;;;;6.00;3.03;;;;;;;;;;4986628;28;20388;-76
2023/06/22 05:26:09;;;;;;;4.05;2.78;;;;;;;;;;4986526;28;20053;-76
2023/06/22 05:28:40;;;;;;;7.50;2.63;;;;;;;;;;4986729;28;20065;-76
2023/06/22 05:31:13;;;;;;;5.95;3.28;;;;;;;;;;4969323;28;20062;-76
2023/06/22 05:33:45;;;;;;;3.90;2.83;;;;;;;;;;4986721;28;20060;-77
2023/06/22 05:36:15;;;;;;;4.10;2.63;;;;;;;;;;4986914;28;20053;-76
2023/06/22 05:38:47;;;;;;;4.55;3.13;;;;;;;;;;4968364;28;20050;-76
2023/06/22 05:41:20;;;;;;;6.15;2.58;;;;;;;;;;4986394;28;20053;-76
2023/06/22 05:43:50;;;;;;;5.97;2.78;;;;;;;;;;4986111;28;20046;-76
2023/06/22 05:46:20;;;;;;;5.68;2.90;;;;;;;;;;4986523;28;20050;-76
2023/06/22 05:48:50;;;;;;;9.55;2.45;;;;;;;;;;4986581;28;20118;-76
2023/06/22 05:51:21;;;;;;;6.10;2.88;;;;;;;;;;4986494;28;20497;-76
2023/06/22 05:53:51;;;;;;;4.70;2.65;;;;;;;;;;4968310;28;20063;-76
2023/06/22 05:56:21;;;;;;;4.75;3.20;;;;;;;;;;4986168;28;20046;-76
2023/06/22 05:58:52;;;;;;;6.40;3.20;;;;;;;;;;4986066;28;20053;-76
2023/06/22 06:01:22;;;;;;;4.70;2.95;;;;;;;;;;4986217;28;20061;-77
2023/06/22 06:03:53;;;;;;;5.18;2.65;;;;;;;;;;4986464;28;20069;-76
2023/06/22 06:06:28;;;;;;;3.67;2.55;;;;;;;;;;4985995;28;20046;-76
2023/06/22 06:08:59;;;;;;;5.50;3.30;;;;;;;;;;4985778;28;20390;-76
2023/06/22 06:11:29;;;;;;;3.60;2.60;;;;;;;;;;4986289;28;20057;-76
2023/06/22 06:14:01;;;;;;;6.38;3.22;;;;;;;;;;4985689;28;20066;-76
2023/06/22 06:16:32;;;;;;;6.32;3.38;;;;;;;;;;4985780;28;20517;-76
2023/06/22 06:19:02;;;;;;;4.60;2.80;;;;;;;;;;4986243;28;20054;-76
2023/06/22 06:21:32;;;;;;;7.93;2.70;;;;;;;;;;4985833;28;20046;-76
2023/06/22 06:24:04;;;;;;;7.35;3.20;;;;;;;;;;4985815;28;20053;-75
2023/06/22 06:26:35;;;;;;;4.80;2.72;;;;;;;;;;4985427;28;20046;-76
2023/06/22 06:29:05;;;;;;;6.00;2.83;;;;;;;;;;4985620;28;20053;-76
2023/06/22 06:31:36;;;;;;;4.57;3.55;;;;;;;;;;4968346;28;20057;-76
2023/06/22 06:34:06;;;;;;;5.95;3.75;;;;;;;;;;4985465;28;20043;-76
2023/06/22 06:36:37;;;;;;;5.97;3.53;;;;;;;;;;4985770;28;20047;-76
2023/06/22 06:39:07;;;;;;;6.28;3.45;;;;;;;;;;4986013;28;20058;-76
2023/06/22 06:41:37;;;;;;;8.63;3.83;;;;;;;;;;4986534;28;20046;-76
2023/06/22 06:44:16;;;;;;;7.10;3.72;;;;;;;;;;4967508;28;20066;-76
2023/06/22 06:46:47;;;;;;;6.82;3.97;;;;;;;;;;4985616;28;20058;-77
2023/06/22 06:49:17;;;;;;;5.43;3.78;;;;;;;;;;4985371;28;20050;-77
2023/06/22 06:51:48;;;;;;;6.90;4.53;;;;;;;;;;4985306;28;20053;-76
2023/06/22 06:54:20;;;;;;;8.63;4.00;;;;;;;;;;4985515;28;20047;-76
2023/06/22 06:56:50;;;;;;;8.23;4.35;;;;;;;;;;4985431;28;20050;-76
2023/06/22 06:59:20;;;;;;;9.35;4.22;;;;;;;;;;4968434;28;20074;-76
2023/06/22 07:01:51;;;;;;;6.25;4.45;;;;;;;;;;4968652;28;20058;-76
2023/06/22 07:04:22;;;;;;;8.25;4.35;;;;;;;;;;4985539;28;20054;-76
2023/06/22 07:06:52;;;;;;;5.75;3.78;;;;;;;;;;4968375;28;20054;-76
2023/06/22 07:09:22;;;;;;;6.78;4.57;;;;;;;;;;4968387;28;20540;-76
2023/06/22 07:11:53;;;;;;;5.72;4.05;;;;;;;;;;4985322;28;20517;-76
2023/06/22 07:14:24;;;;;;;6.53;4.32;;;;;;;;;;4968433;28;20062;-76
2023/06/22 07:16:55;;;;;;;5.70;4.90;;;;;;;;;;4986779;28;20413;-75
2023/06/22 07:19:29;;;;;;;12.73;5.00;;;;;;;;;;4967253;28;20534;-76
2023/06/22 07:21:59;;;;;;;7.43;4.60;;;;;;;;;;4985216;28;20045;-76
2023/06/22 07:24:30;;;;;;;6.40;4.50;;;;;;;;;;4985732;28;20050;-76
2023/06/22 07:27:02;;;;;;;7.22;4.35;;;;;;;;;;4985850;28;20863;-75
2023/06/22 07:29:33;;;;;;;6.13;4.18;;;;;;;;;;4985170;28;20063;-76
2023/06/22 07:32:05;;;;;;;6.95;5.10;;;;;;;;;;4985198;28;20390;-75
2023/06/22 07:34:35;;;;;;;7.10;4.05;;;;;;;;;;4985368;28;20053;-75
2023/06/22 07:37:05;;;;;;;6.90;4.18;;;;;;;;;;4987816;28;20049;-76
2023/06/22 07:39:43;;;;;;;8.20;4.65;;;;;;;;;;4989344;28;20050;-75
2023/06/22 07:42:18;;;;;;;6.53;4.53;;;;;;;;;;4971968;28;20046;-76
2023/06/22 07:44:50;;;;;;;12.25;4.55;;;;;;;;;;4989778;28;20050;-75
2023/06/22 07:47:25;;;;;;;7.30;4.57;;;;;;;;;;4988750;28;20058;-75
2023/06/22 07:49:58;;;;;;;7.15;4.50;;;;;;;;;;4989059;28;20046;-75
2023/06/22 07:52:29;;;;;;;7.20;5.03;;;;;;;;;;4988682;28;20417;-76
2023/06/22 07:54:59;;;;;;;7.38;4.78;;;;;;;;;;4988925;28;20065;-76
2023/06/22 07:57:33;;;;;;;6.93;5.00;;;;;;;;;;4988382;28;20497;-75
2023/06/22 08:00:15;;;;;;;7.70;5.10;;;;;;;;;;4988811;28;20061;-75
2023/06/22 08:02:47;;;;;;;8.55;5.18;;;;;;;;;;4971072;28;20605;-75
2023/06/22 08:05:18;;;;;;;7.30;4.90;;;;;;;;;;4990355;28;20132;-74
2023/06/22 08:08:05;;;;;;;7.80;4.88;;;;;;;;;;4988341;28;20057;-75
2023/06/22 08:10:36;;;;;;;9.60;5.15;;;;;;;;;;4988678;28;20057;-75
2023/06/22 08:13:06;;;;;;;8.98;5.57;;;;;;;;;;4989629;28;20426;-75
2023/06/22 08:15:36;;;;;;;8.10;5.00;;;;;;;;;;4990432;28;20066;-76
2023/06/22 08:18:07;;;;;;;6.78;4.75;;;;;;;;;;4989445;28;20046;-75
2023/06/22 08:20:38;;;;;;;11.43;5.03;;;;;;;;;;4989676;28;20050;-76
2023/06/22 08:23:09;;;;;;;9.48;4.85;;;;;;;;;;4988494;28;20065;-75
2023/06/22 08:25:39;;;;;;;8.23;5.05;;;;;;;;;;4988551;28;20756;-75
2023/06/22 08:28:10;;;;;;;6.32;4.75;;;;;;;;;;4987700;28;20528;-75
2023/06/22 08:30:41;;;;;;;10.65;5.22;;;;;;;;;;4988696;28;20042;-76
2023/06/22 08:33:13;;;;;;;8.90;5.18;;;;;;;;;;4989050;28;20047;-75
2023/06/22 08:35:56;;;;;;;12.00;7.40;;;;;;;;;;4988115;28;20050;-75
2023/06/22 08:38:26;;;;;;;7.90;5.32;;;;;;;;;;4988349;28;20050;-75
2023/06/22 08:40:57;;;;;;;7.60;5.80;;;;;;;;;;4987782;28;20452;-75
2023/06/22 08:43:27;;;;;;;7.97;5.32;;;;;;;;;;4988315;28;20046;-75
2023/06/22 08:45:58;;;;;;;12.70;5.47;;;;;;;;;;4987919;28;20051;-75
2023/06/22 08:48:29;;;;;;;8.95;5.60;;;;;;;;;;4987716;28;20054;-75
2023/06/22 08:51:02;;;;;;;7.45;4.80;;;;;;;;;;4987200;28;20054;-76
2023/06/22 08:53:32;;;;;;;8.55;4.97;;;;;;;;;;4987864;28;20054;-75
2023/06/22 08:56:03;;;;;;;10.95;5.38;;;;;;;;;;4987653;28;20509;-75
2023/06/22 08:58:33;;;;;;;6.93;5.40;;;;;;;;;;4987621;28;20046;-75
2023/06/22 09:01:04;;;;;;;15.68;6.20;;;;;;;;;;4987386;28;20081;-76
2023/06/22 09:03:36;;;;;;;10.25;5.00;;;;;;;;;;4987436;28;20061;-76
2023/06/22 09:06:09;;;;;;;8.15;6.03;;;;;;;;;;4969557;28;20061;-75
2023/06/22 09:08:39;;;;;;;7.57;5.20;;;;;;;;;;4987375;28;20050;-76
2023/06/22 09:11:09;;;;;;;7.18;5.00;;;;;;;;;;4986990;28;20054;-75
2023/06/22 09:13:39;;;;;;;7.30;5.43;;;;;;;;;;4986944;28;20513;-74
2023/06/22 09:16:09;;;;;;;8.20;5.10;;;;;;;;;;4987116;28;20054;-75
2023/06/22 09:18:40;;;;;;;9.65;6.47;;;;;;;;;;4986973;28;20421;-75
2023/06/22 09:21:10;;;;;;;9.02;5.43;;;;;;;;;;4986625;28;20057;-75
2023/06/22 09:23:41;;;;;;;9.25;5.45;;;;;;;;;;4986374;28;20059;-75
2023/06/22 09:26:13;;;;;;;8.90;5.78;;;;;;;;;;4987033;28;20054;-76
2023/06/22 09:28:43;;;;;;;8.45;5.38;;;;;;;;;;4986199;28;20528;-75
2023/06/22 09:31:13;;;;;;;11.23;5.65;;;;;;;;;;4986614;28;20061;-74
2023/06/22 09:33:44;;;;;;;8.55;6.18;;;;;;;;;;4986649;28;20386;-76
2023/06/22 09:36:16;;;;;;;13.20;6.03;;;;;;;;;;4987182;28;20045;-76
2023/06/22 09:38:54;;;;;;;8.32;5.93;;;;;;;;;;4987108;28;20049;-75
2023/06/22 09:41:26;;;;;;;10.85;5.72;;;;;;;;;;4986268;28;20053;-75
2023/06/22 09:43:56;;;;;;;9.02;5.78;;;;;;;;;;4986343;28;20046;-75
2023/06/22 09:46:27;;;;;;;8.93;6.15;;;;;;;;;;4986556;28;20533;-75
2023/06/22 09:48:58;;;;;;;10.63;6.50;;;;;;;;;;4986551;28;20038;-76
2023/06/22 09:51:29;;;;;;;9.85;6.60;;;;;;;;;;4986724;28;20588;-75
2023/06/22 09:54:01;;;;;;;9.43;6.30;;;;;;;;;;4986696;28;20124;-76
2023/06/22 09:56:33;;;;;;;9.38;6.55;;;;;;;;;;4986442;28;20054;-76
2023/06/22 09:59:03;;;;;;;10.18;5.78;;;;;;;;;;4985679;28;20058;-75
2023/06/22 10:01:46;;;;;;;11.57;6.88;;;;;;;;;;4985938;28;20047;-74
2023/06/22 10:04:16;;;;;;;9.80;6.05;;;;;;;;;;4986361;28;20053;-75
2023/06/22 10:06:47;;;;;;;12.18;6.57;;;;;;;;;;4986728;28;20069;-74
2023/06/22 10:09:18;;;;;;;9.63;5.63;;;;;;;;;;4986726;28;20050;-73
2023/06/22 10:11:48;;;;;;;8.63;5.93;;;;;;;;;;4985846;28;20061;-74
2023/06/22 10:14:18;;;;;;;8.18;5.90;;;;;;;;;;4986065;28;20058;-74
2023/06/22 10:16:49;;;;;;;10.57;5.93;;;;;;;;;;4986314;28;20042;-73
2023/06/22 10:19:20;;;;;;;9.73;6.00;;;;;;;;;;4985487;28;20057;-77
2023/06/22 10:21:51;;;;;;;12.32;6.05;;;;;;;;;;4985858;28;20054;-73
2023/06/22 10:24:22;;;;;;;10.27;6.55;;;;;;;;;;4985700;28;20061;-75
2023/06/22 10:26:53;;;;;;;11.25;7.30;;;;;;;;;;4986010;28;20412;-73
2023/06/22 10:29:24;;;;;;;13.70;6.63;;;;;;;;;;4986082;28;20042;-73
2023/06/22 10:31:55;;;;;;;9.68;7.00;;;;;;;;;;4985540;28;20883;-73
2023/06/22 10:34:26;;;;;;;10.77;6.28;;;;;;;;;;4985791;28;20046;-74
2023/06/22 10:36:56;;;;;;;8.85;5.97;;;;;;;;;;4985537;28;20051;-73
2023/06/22 10:39:27;;;;;;;10.63;6.28;;;;;;;;;;4985501;28;20042;-74
2023/06/22 10:41:58;;;;;;;9.40;6.18;;;;;;;;;;4986100;28;20046;-74
2023/06/22 10:44:28;;;;;;;10.52;6.78;;;;;;;;;;4966589;28;20065;-74
2023/06/22 10:46:59;;;;;;;18.27;7.93;;;;;;;;;;4966340;28;20047;-73
2023/06/22 10:49:29;;;;;;;8.55;6.60;;;;;;;;;;4967308;28;20047;-74
2023/06/22 10:52:01;;;;;;;8.93;6.40;;;;;;;;;;4965904;28;20046;-73
2023/06/22 10:54:33;;;;;;;18.88;16.05;;;;;;;;;;4966524;28;20038;-73
2023/06/22 10:57:05;;;;;;;11.02;7.30;;;;;;;;;;4966006;28;20054;-74
2023/06/22 10:59:35;;;;;;;12.35;7.45;;;;;;;;;;4966409;28;20065;-73
2023/06/22 11:02:06;;;;;;;14.73;6.85;;;;;;;;;;4965867;28;20050;-74
2023/06/22 11:04:38;;;;;;;9.38;7.18;;;;;;;;;;4965792;28;20050;-72
2023/06/22 11:07:07;;;;;;;9.57;6.57;;;;;;;;;;4964791;28;20058;-74
2023/06/22 11:09:39;;;;;;;10.63;6.88;;;;;;;;;;4966259;28;20050;-74
2023/06/22 11:12:10;;;;;;;8.73;6.28;;;;;;;;;;4968684;28;20101;-74
2023/06/22 11:14:41;;;;;;;10.88;7.78;;;;;;;;;;4970034;28;20047;-74
2023/06/22 11:17:11;;;;;;;10.32;7.15;;;;;;;;;;4970119;28;20050;-74
2023/06/22 11:19:41;;;;;;;10.93;7.65;;;;;;;;;;4969528;28;20046;-74
2023/06/22 11:22:12;;;;;;;12.98;8.45;;;;;;;;;;4969283;28;20050;-75
2023/06/22 11:24:43;;;;;;;8.98;6.78;;;;;;;;;;4968186;28;20078;-74
2023/06/22 11:27:14;;;;;;;14.13;7.35;;;;;;;;;;4969100;28;20544;-74
2023/06/22 11:29:44;;;;;;;10.88;6.88;;;;;;;;;;4969297;28;20039;-74
2023/06/22 11:32:15;;;;;;;11.57;6.78;;;;;;;;;;4967414;28;20065;-75
2023/06/22 11:34:45;;;;;;;9.68;6.32;;;;;;;;;;4969898;28;20054;-74
2023/06/22 11:37:16;;;;;;;8.25;6.10;;;;;;;;;;4969084;28;20043;-74
2023/06/22 11:39:46;;;;;;;12.93;6.68;;;;;;;;;;4969475;28;20537;-74
2023/06/22 11:42:34;;;;;;;8.73;6.43;;;;;;;;;;4969433;28;20050;-73
2023/06/22 11:45:06;;;;;;;8.05;5.93;;;;;;;;;;4969732;28;20055;-75
2023/06/22 11:47:37;;;;;;;10.00;6.07;;;;;;;;;;4969423;28;20494;-76
2023/06/22 11:50:14;;;;;;;9.25;6.50;;;;;;;;;;4969232;28;20077;-74
2023/06/22 11:52:44;;;;;;;9.30;6.78;;;;;;;;;;4968841;28;20054;-75
2023/06/22 11:55:15;;;;;;;10.32;7.00;;;;;;;;;;4969190;28;20549;-74
2023/06/22 11:58:00;;;;;;;9.70;6.50;;;;;;;;;;4968898;28;20070;-73
2023/06/22 12:00:30;;;;;;;9.00;6.63;;;;;;;;;;4969189;28;20436;-74
2023/06/22 12:03:17;;;;;;;8.77;6.10;;;;;;;;;;4968808;28;20051;-74
2023/06/22 12:05:48;;;;;;;12.50;6.70;;;;;;;;;;4969291;28;20058;-73
2023/06/22 12:08:19;;;;;;;11.02;7.93;;;;;;;;;;4967543;28;20498;-74
2023/06/22 12:10:50;;;;;;;9.20;6.30;;;;;;;;;;4968678;28;20054;-74
2023/06/22 12:13:20;;;;;;;12.60;8.57;;;;;;;;;;4968353;28;20062;-74
2023/06/22 12:15:52;;;;;;;11.95;6.70;;;;;;;;;;4967418;28;20054;-74
2023/06/22 12:18:23;;;;;;;10.98;6.35;;;;;;;;;;4968886;28;20050;-75
2023/06/22 12:20:52;;;;;;;9.38;6.07;;;;;;;;;;4969066;28;20042;-74
2023/06/22 12:23:23;;;;;;;9.30;5.68;;;;;;;;;;4968868;28;20050;-74
2023/06/22 12:25:53;;;;;;;10.63;6.50;;;;;;;;;;4968900;28;20062;-75
2023/06/22 12:28:23;;;;;;;9.50;6.13;;;;;;;;;;4968244;28;20051;-75
2023/06/22 12:30:54;;;;;;;12.10;7.03;;;;;;;;;;4968710;28;20483;-74
2023/06/22 12:33:24;;;;;;;9.27;6.10;;;;;;;;;;4968247;28;20398;-74
2023/06/22 12:35:54;;;;;;;9.55;6.65;;;;;;;;;;4968996;28;20236;-74
2023/06/22 12:38:25;;;;;;;11.07;7.43;;;;;;;;;;4968483;28;20425;-74
2023/06/22 12:40:57;;;;;;;9.98;6.88;;;;;;;;;;4968413;28;20042;-74
2023/06/22 12:43:26;;;;;;;23.13;17.00;;;;;;;;;;4968595;28;20043;-73
2023/06/22 12:45:57;;;;;;;9.20;7.00;;;;;;;;;;4968217;28;20046;-76
2023/06/22 12:48:28;;;;;;;11.32;6.78;;;;;;;;;;4968179;28;20058;-74
2023/06/22 12:50:59;;;;;;;39.05;34.85;;;;;;;;;;4968303;28;20050;-74
2023/06/22 12:53:29;;;;;;;8.05;6.15;;;;;;;;;;4968403;28;20050;-73
2023/06/22 12:55:59;;;;;;;10.73;6.75;;;;;;;;;;4968016;28;20050;-75
2023/06/22 12:58:30;;;;;;;12.90;6.72;;;;;;;;;;4968684;28;20055;-73
2023/06/22 13:01:00;;;;;;;9.70;7.00;;;;;;;;;;4968257;28;20051;-74
2023/06/22 13:03:30;;;;;;;16.00;7.68;;;;;;;;;;4966513;28;20054;-75
2023/06/22 13:06:00;;;;;;;12.02;7.13;;;;;;;;;;4967815;28;20047;-74
2023/06/22 13:08:32;;;;;;;14.05;7.57;;;;;;;;;;4968362;28;20367;-74
2023/06/22 13:11:22;;;;;;;8.50;6.55;;;;;;;;;;4968206;28;20494;-74
2023/06/22 13:13:52;;;;;;;12.55;7.70;;;;;;;;;;4967577;28;20859;-75
2023/06/22 13:16:23;;;;;;;12.75;7.15;;;;;;;;;;4967740;28;20046;-76
2023/06/22 13:18:55;;;;;;;10.55;6.97;;;;;;;;;;4967050;28;20055;-75
2023/06/22 13:21:25;;;;;;;10.88;7.32;;;;;;;;;;4967691;28;20510;-75
2023/06/22 13:23:56;;;;;;;12.25;7.75;;;;;;;;;;4965462;28;20062;-75
2023/06/22 13:26:26;;;;;;;11.27;7.32;;;;;;;;;;4967521;28;20088;-74
2023/06/22 13:28:57;;;;;;;10.10;7.13;;;;;;;;;;4966421;28;20050;-75
2023/06/22 13:31:28;;;;;;;12.65;8.18;;;;;;;;;;4966994;28;20054;-75
2023/06/22 13:33:57;;;;;;;9.98;6.97;;;;;;;;;;4966052;28;20058;-75
2023/06/22 13:36:30;;;;;;;12.38;7.68;;;;;;;;;;4966920;28;20050;-75
2023/06/22 13:39:01;;;;;;;12.88;8.73;;;;;;;;;;4967309;28;20418;-75
2023/06/22 13:41:32;;;;;;;8.52;7.05;;;;;;;;;;4967163;28;20047;-74
2023/06/22 13:44:02;;;;;;;12.25;7.32;;;;;;;;;;4967128;28;20042;-75
2023/06/22 13:46:32;;;;;;;11.13;7.28;;;;;;;;;;4967135;28;20038;-75
2023/06/22 13:49:02;;;;;;;12.52;7.55;;;;;;;;;;4966614;28;20045;-75
2023/06/22 13:51:33;;;;;;;13.15;7.93;;;;;;;;;;4967113;28;20054;-75
2023/06/22 13:54:03;;;;;;;10.73;7.93;;;;;;;;;;4967246;28;20051;-75
2023/06/22 13:56:52;;;;;;;7.68;6.60;;;;;;;;;;4967087;28;20050;-74
2023/06/22 13:59:23;;;;;;;7.20;5.88;;;;;;;;;;4967058;28;20054;-74
2023/06/22 14:01:53;;;;;;;13.77;8.40;;;;;;;;;;4967696;28;20055;-75
2023/06/22 14:04:24;;;;;;;8.80;5.68;;;;;;;;;;4964689;28;20161;-75
2023/06/22 14:06:55;;;;;;;10.93;5.90;;;;;;;;;;4964796;28;20065;-75
2023/06/22 14:09:26;;;;;;;8.10;6.00;;;;;;;;;;4967036;28;20062;-75
2023/06/22 14:11:57;;;;;;;5.43;4.30;;;;;;;;;;4966784;28;20055;-77
2023/06/22 14:14:28;;;;;;;6.40;5.13;;;;;;;;;;4966772;28;20534;-75
2023/06/22 14:16:59;;;;;;;6.63;4.90;;;;;;;;;;4967089;28;20047;-75
2023/06/22 14:19:29;;;;;;;8.02;4.80;;;;;;;;;;4966706;28;20070;-75
2023/06/22 14:21:59;;;;;;;5.75;5.03;;;;;;;;;;4966884;28;20394;-75
2023/06/22 14:24:30;;;;;;;8.20;5.22;;;;;;;;;;4964589;28;20062;-76
2023/06/22 14:27:02;;;;;;;5.72;4.82;;;;;;;;;;4966688;28;20061;-75
2023/06/22 14:29:33;;;;;;;10.00;5.65;;;;;;;;;;4966788;28;20042;-75
2023/06/22 14:32:06;;;;;;;7.40;6.05;;;;;;;;;;4967027;28;20053;-75
2023/06/22 14:34:39;;;;;;;9.45;5.68;;;;;;;;;;4966479;28;20502;-74
2023/06/22 14:37:09;;;;;;;8.23;6.03;;;;;;;;;;4966380;28;20061;-74
2023/06/22 14:39:42;;;;;;;9.23;5.72;;;;;;;;;;4966721;28;20119;-75
2023/06/22 14:42:12;;;;;;;9.55;6.20;;;;;;;;;;4966414;28;20050;-76
2023/06/22 14:44:42;;;;;;;9.27;6.43;;;;;;;;;;4967015;28;20456;-74
2023/06/22 14:47:14;;;;;;;6.88;5.60;;;;;;;;;;4972979;28;20046;-75
2023/06/22 14:49:44;;;;;;;8.55;5.47;;;;;;;;;;4973228;28;20055;-74
2023/06/22 14:52:14;;;;;;;8.38;5.78;;;;;;;;;;4972389;28;20058;-74
2023/06/22 14:54:44;;;;;;;8.77;5.40;;;;;;;;;;4972789;28;20050;-75
2023/06/22 14:57:17;;;;;;;7.05;4.88;;;;;;;;;;4972770;28;20053;-73
2023/06/22 14:59:48;;;;;;;6.72;4.75;;;;;;;;;;4972764;28;20055;-75
2023/06/22 15:02:20;;;;;;;8.45;5.13;;;;;;;;;;4973025;28;20039;-74
2023/06/22 15:04:50;;;;;;;5.13;3.75;;;;;;;;;;4972985;28;20514;-75
2023/06/22 15:07:20;;;;;;;4.88;3.50;;;;;;;;;;4972473;28;20072;-75
2023/06/22 15:09:50;;;;;;;5.72;3.67;;;;;;;;;;4972397;28;20054;-76